Avon, CT

7:02 AM EST on December 08, 2016 (GMT -0500)
Jackson Heights | | Change Station
Active Advisory: Special Statement

Elev 276 ft 41.80 °N, 72.84 °W | Updated 50 seconds ago

Fog
Fog
27.6 °F
Feels Like 28 °F
N
0.0
Wind Variable Wind from South

Today
High -- | Low -- °F
--% Chance of Precip.
Yesterday
High -- | Low -- °F
Precip. -- in
Pressure 29.96 in
Visibility 0.2 miles
Clouds
Windchill 28 °F
Dew Point 27 °F
Humidity 98%
Rainfall 0.00 in
Snow Depth Not available.
7:06 AM 4:20 PM
Waxing Gibbous, 62% visible
METAR KHFD 081153Z 00000KT 1/4SM FZFG VV002 M01/M01 A2995 RMK AO2 SLP143 I1000 I6001 T10061006 10017 21011 56006
Pressure 29.96 in
Visibility 0.2 miles
Clouds
Windchill 28 °F
Dew Point 27 °F
Humidity 98%
Rainfall 0.00 in
Snow Depth Not available.
7:06 AM 4:20 PM
Waxing Gibbous, 62% visible
METAR KHFD 081153Z 00000KT 1/4SM FZFG VV002 M01/M01 A2995 RMK AO2 SLP143 I1000 I6001 T10061006 10017 21011 56006

10-Day Weather Forecast

Almanac

Astronomy

Dec. 08, 2016 Rise Set
Actual Time
Civil Twilight
Nautical Twilight
Astronomical Twilight
Moon
Length of Visible Light
Length of Day
Tomorrow will be .
, % of the Moon is Illuminated

Today's Extremes

State Highs State Lows

Community

WunderPhotos

Upload Photos

1,956,267 photos uploaded!

WunderBlog® & News

Nearby

Air Quality

  Air Quality AQ Index Pollutant
Not available.

Snow Depth

Station Depth Elevation

Earthquake Activity

City Distance Mag. Time & Date
Minimum magnitude displayed is 2.5.

Coastal Water Temperatures

Place Temperature

Stations

Nearby Weather Stations

Station Location Temp. Windchill Dew Point Humidity Wind Precip. Elev Updated Type
                   

Watches & Warnings

Special Statement
Issued: 4:58 AM EST Dec. 8, 2016 – National Weather Service

... Patchy dense fog is likely this morning...

Light winds and some breaks in the cloud cover have allowed patchy
dense fog to form across much of southern New England. Fog is most
dense across portions of western and northern Massachusetts. Fog
should dissipate by mid-morning. Motorists should slow down and
use low beams when traveling this morning.


Rlg

458 am EST Thu Dec 8 2016

... Patchy dense fog is likely this morning...

Light winds and some breaks in the cloud cover have allowed patchy
dense fog to form across much of southern New England. Fog is most
dense across portions of western and northern Massachusetts. Fog
should dissipate by mid-morning. Motorists should slow down and
use low beams when traveling this morning.


Rlg